createdAt,value
2018-11-07T16:59:29.878Z,15.00
2018-11-07T17:01:58.120Z,15.00
2018-11-07T17:04:26.404Z,15.00
2018-11-07T17:06:54.591Z,14.90
2018-11-07T17:09:22.754Z,15.00
2018-11-07T17:11:50.939Z,14.80
2018-11-07T17:14:19.134Z,14.90
2018-11-07T17:16:47.338Z,14.90
2018-11-07T17:19:15.530Z,14.90
2018-11-07T17:21:43.717Z,14.90
2018-11-07T17:24:12.037Z,14.80
2018-11-07T17:26:40.152Z,14.80
2018-11-07T17:29:08.282Z,14.80
2018-11-07T17:31:36.535Z,14.70
2018-11-07T17:34:04.794Z,14.70
2018-11-07T17:36:33.015Z,14.60
2018-11-07T17:39:01.202Z,14.60
2018-11-07T17:41:29.502Z,14.50
2018-11-07T17:43:57.703Z,14.50
2018-11-07T17:46:25.934Z,14.60
2018-11-07T17:48:54.145Z,14.60
2018-11-07T17:51:22.338Z,14.60
2018-11-07T17:53:50.812Z,14.60
2018-11-07T17:56:19.060Z,14.50
2018-11-07T17:58:47.263Z,14.50
2018-11-07T18:01:15.432Z,14.50
2018-11-07T18:03:43.666Z,14.50
2018-11-07T18:06:11.850Z,14.60
2018-11-07T18:08:40.170Z,14.60
2018-11-07T18:11:08.361Z,14.60
2018-11-07T18:13:36.874Z,14.60
2018-11-07T18:16:05.142Z,14.60
2018-11-07T18:18:33.320Z,14.60
2018-11-07T18:21:01.604Z,14.60
2018-11-07T18:23:29.893Z,14.40
2018-11-07T18:25:58.169Z,14.40
2018-11-07T18:28:26.377Z,14.40
2018-11-07T18:30:54.633Z,14.20
2018-11-07T18:33:22.874Z,14.30
2018-11-07T18:35:51.320Z,14.10
2018-11-07T18:38:19.489Z,14.20
2018-11-07T18:40:47.737Z,14.20
2018-11-07T18:43:15.948Z,14.00
2018-11-07T18:45:44.203Z,13.90
2018-11-07T18:48:12.397Z,13.70
2018-11-07T18:50:40.649Z,13.60
2018-11-07T18:53:08.817Z,13.70
2018-11-07T18:55:37.105Z,13.60
2018-11-07T18:58:05.778Z,13.60
2018-11-07T19:00:33.957Z,13.40
2018-11-07T19:03:02.203Z,13.50
2018-11-07T19:05:30.382Z,13.50
2018-11-07T19:07:58.559Z,13.60
2018-11-07T19:10:26.770Z,13.50
2018-11-07T19:12:54.953Z,13.70
2018-11-07T19:15:23.173Z,13.90
2018-11-07T19:17:51.782Z,13.90
2018-11-07T19:20:20.372Z,13.90
2018-11-07T19:22:48.476Z,14.00
2018-11-07T19:25:18.045Z,14.00
2018-11-07T19:27:46.247Z,14.00
2018-11-07T19:30:15.723Z,14.10
2018-11-07T19:32:45.767Z,14.10
2018-11-07T19:35:14.932Z,14.10
2018-11-07T19:37:43.697Z,14.10
2018-11-07T19:40:13.174Z,13.90
2018-11-07T19:42:41.706Z,14.00
2018-11-07T19:45:11.834Z,14.00
2018-11-07T19:47:40.032Z,13.90
2018-11-07T19:50:10.021Z,14.00
2018-11-07T19:52:38.230Z,14.00
2018-11-07T19:55:08.339Z,14.00
2018-11-07T19:57:36.479Z,13.80
2018-11-07T20:00:06.223Z,14.00
2018-11-07T20:02:34.418Z,14.00
2018-11-07T20:05:02.622Z,14.00
2018-11-07T20:07:30.845Z,14.00
2018-11-07T20:09:59.058Z,14.00
2018-11-07T20:12:27.260Z,14.00
2018-11-07T20:14:55.758Z,14.00
2018-11-07T20:17:23.957Z,14.00
2018-11-07T20:19:52.136Z,14.00
2018-11-07T20:22:20.361Z,13.90
2018-11-07T20:24:48.555Z,13.90
2018-11-07T20:27:16.749Z,13.90
2018-11-07T20:29:44.934Z,13.90
2018-11-07T20:32:13.140Z,13.90
2018-11-07T20:34:41.533Z,13.90
2018-11-07T20:37:09.698Z,14.00
2018-11-07T20:39:38.402Z,14.00
2018-11-07T20:42:06.655Z,13.90
2018-11-07T20:44:34.854Z,13.80
2018-11-07T20:47:03.058Z,13.80
2018-11-07T20:49:31.245Z,13.80
2018-11-07T20:51:59.457Z,13.80
2018-11-07T20:54:27.659Z,13.80
2018-11-07T20:56:55.858Z,13.80
2018-11-07T20:59:24.033Z,13.80
2018-11-07T21:01:52.340Z,13.80
2018-11-07T21:04:20.477Z,13.80
2018-11-07T21:06:48.711Z,13.80
2018-11-07T21:09:16.907Z,13.90
2018-11-07T21:11:45.118Z,13.80
2018-11-07T21:14:13.356Z,13.80
2018-11-07T21:16:41.605Z,13.80
2018-11-07T21:19:09.805Z,13.80
2018-11-07T21:21:38.006Z,13.80
2018-11-07T21:24:06.677Z,13.70
2018-11-07T21:26:34.974Z,13.80
2018-11-07T21:29:03.154Z,13.70
2018-11-07T21:31:31.662Z,13.60
2018-11-07T21:33:59.913Z,13.70
2018-11-07T21:36:28.304Z,13.60
2018-11-07T21:38:56.730Z,13.60
2018-11-07T21:41:24.933Z,13.50
2018-11-07T21:43:53.140Z,13.50
2018-11-07T21:46:21.298Z,13.40
2018-11-07T21:48:49.466Z,13.30
2018-11-07T21:51:17.650Z,13.30
2018-11-07T21:53:45.828Z,13.10
2018-11-07T21:56:14.020Z,13.10
2018-11-07T21:58:42.205Z,13.00
2018-11-07T22:01:10.377Z,12.90
2018-11-07T22:03:38.576Z,12.80
2018-11-07T22:06:06.753Z,12.90
2018-11-07T22:08:34.940Z,12.90
2018-11-07T22:11:03.146Z,12.90
2018-11-07T22:13:31.326Z,12.90
2018-11-07T22:15:59.500Z,12.80
2018-11-07T22:18:27.690Z,12.80
2018-11-07T22:20:55.869Z,12.80
2018-11-07T22:23:24.052Z,12.60
2018-11-07T22:25:52.233Z,12.60
2018-11-07T22:28:20.432Z,12.50
2018-11-07T22:30:48.632Z,12.50
2018-11-07T22:33:16.791Z,12.50
2018-11-07T22:35:44.970Z,12.40
2018-11-07T22:38:13.153Z,12.40
2018-11-07T22:40:41.340Z,12.60
2018-11-07T22:43:09.531Z,12.50
2018-11-07T22:45:37.713Z,12.50
2018-11-07T22:48:05.897Z,12.50
2018-11-07T22:50:34.077Z,12.50
2018-11-07T22:53:02.266Z,12.40
2018-11-07T22:55:30.441Z,12.40
2018-11-07T22:57:58.625Z,12.30
